Time;durP1;ratioP1;P1;durP2;ratioP2;P2;SDS_P1;SDS_P2;PMS_P1;PMS_P2;Temp;Humidity;BMP_temperature;BMP_pressure;BME280_temperature;BME280_humidity;BME280_pressure;Samples;Min_cycle;Max_cycle;Signal;HPM_P1;HPM_P2
2022/06/08 00:00:56;;;;;;;8.57;5.72;;;;;;;19.06;nan;94657.38;5073407;28;20216;-68
2022/06/08 00:03:27;;;;;;;5.70;4.97;;;;;;;19.33;nan;94660.50;5074806;28;20362;-67
2022/06/08 00:05:54;;;;;;;5.22;4.43;;;;;;;19.39;nan;94656.66;5073283;28;20225;-69
2022/06/08 00:08:21;;;;;;;4.75;4.05;;;;;;;19.73;nan;94652.41;5074274;28;20278;-69
2022/06/08 00:10:48;;;;;;;5.32;3.92;;;;;;;20.02;nan;94647.63;5072048;28;20586;-68
2022/06/08 00:13:14;;;;;;;5.55;5.03;;;;;;;20.54;nan;94651.31;5074411;28;20266;-67
2022/06/08 00:15:42;;;;;;;5.65;4.97;;;;;;;20.78;nan;94633.88;5073687;28;20202;-68
2022/06/08 00:18:11;;;;;;;5.38;4.68;;;;;;;20.97;nan;94643.53;5071952;28;20224;-68
2022/06/08 00:20:38;;;;;;;3.47;3.17;;;;;;;20.88;nan;94650.25;5072108;28;20270;-68
2022/06/08 00:23:05;;;;;;;6.75;4.22;;;;;;;21.08;nan;94640.06;5073433;28;20556;-70
2022/06/08 00:25:32;;;;;;;10.10;5.20;;;;;;;21.26;nan;94647.19;5074061;28;20248;-68
2022/06/08 00:27:59;;;;;;;7.70;7.00;;;;;;;21.46;nan;94648.13;5073443;28;20229;-68
2022/06/08 00:30:27;;;;;;;7.32;6.65;;;;;;;21.60;nan;94642.63;5072312;28;20193;-69
2022/06/08 00:32:53;;;;;;;5.15;4.40;;;;;;;21.46;nan;94644.72;5072605;28;20213;-69
2022/06/08 00:35:22;;;;;;;4.50;3.80;;;;;;;21.41;nan;94637.34;5073725;28;20212;-69
2022/06/08 00:37:48;;;;;;;4.43;3.90;;;;;;;21.27;nan;94637.66;5074396;28;20198;-69
2022/06/08 00:40:19;;;;;;;4.75;4.30;;;;;;;21.23;nan;94623.34;5071383;28;20249;-68
2022/06/08 00:42:47;;;;;;;5.68;3.75;;;;;;;21.46;nan;94631.78;5073380;28;20197;-70
2022/06/08 00:45:19;;;;;;;7.78;3.92;;;;;;;21.50;nan;94631.41;5073536;28;20266;-69
2022/06/08 00:47:51;;;;;;;6.82;3.92;;;;;;;21.54;nan;94637.94;5072479;28;20208;-68
2022/06/08 00:50:25;;;;;;;5.78;3.67;;;;;;;21.44;nan;94642.25;5077141;28;20687;-68
2022/06/08 00:52:52;;;;;;;8.50;3.90;;;;;;;21.39;nan;94634.06;5077611;28;20198;-69
2022/06/08 00:55:24;;;;;;;4.50;4.13;;;;;;;21.27;nan;94632.50;5077016;28;20201;-69
2022/06/08 00:57:54;;;;;;;4.40;4.00;;;;;;;20.84;nan;94630.78;5076661;28;20201;-70
2022/06/08 01:00:24;;;;;;;17.17;3.72;;;;;;;20.74;nan;94632.47;5077125;28;20637;-69
2022/06/08 01:02:51;;;;;;;3.70;3.50;;;;;;;20.44;nan;94630.56;5077706;28;20201;-68
2022/06/08 01:05:21;;;;;;;5.35;4.30;;;;;;;20.08;nan;94630.81;5077720;28;20230;-67
2022/06/08 01:07:51;;;;;;;7.38;3.40;;;;;;;20.05;nan;94629.28;5078211;28;20216;-68
2022/06/08 01:10:21;;;;;;;6.18;4.13;;;;;;;20.26;nan;94624.25;5076615;28;20552;-69
2022/06/08 01:12:48;;;;;;;6.30;5.30;;;;;;;20.44;nan;94632.31;5077499;28;20212;-68
2022/06/08 01:15:17;;;;;;;4.85;4.55;;;;;;;20.59;nan;94625.94;5076958;28;20205;-69
2022/06/08 01:17:44;;;;;;;6.82;5.25;;;;;;;20.58;nan;94629.47;5074444;28;20201;-68
2022/06/08 01:20:12;;;;;;;5.88;5.47;;;;;;;20.66;nan;94635.66;5074842;28;20581;-68
2022/06/08 01:22:41;;;;;;;4.30;4.00;;;;;;;20.65;nan;94618.53;5076129;28;20201;-68
2022/06/08 01:25:12;;;;;;;7.63;4.30;;;;;;;20.53;nan;94626.44;5077330;28;20229;-69
2022/06/08 01:27:53;;;;;;;4.75;3.95;;;;;;;20.23;nan;94622.72;5077082;28;20233;-68
2022/06/08 01:30:24;;;;;;;4.25;3.95;;;;;;;20.00;nan;94619.38;5075441;28;20251;-67
2022/06/08 01:33:41;;;;;;;4.32;4.13;;;;;;;19.95;nan;94612.91;5078277;28;20289;-67
2022/06/08 01:36:23;;;;;;;4.47;3.92;;;;;;;20.11;nan;94615.94;4990797;28;20204;-67
2022/06/08 01:38:58;;;;;;;4.22;4.03;;;;;;;19.76;nan;94621.25;4993810;28;20217;-68
2022/06/08 01:41:49;;;;;;;7.50;4.25;;;;;;;20.19;nan;94623.91;5050826;28;20206;-68
2022/06/08 01:44:37;;;;;;;4.30;3.88;;;;;;;20.10;nan;94622.03;5077285;28;20206;-70
2022/06/08 01:47:11;;;;;;;4.40;4.00;;;;;;;19.94;nan;94619.00;5077346;28;20233;-67
2022/06/08 01:49:42;;;;;;;4.63;4.22;;;;;;;19.96;nan;94619.72;5075659;28;20216;-69
2022/06/08 01:52:19;;;;;;;5.70;3.85;;;;;;;20.21;nan;94632.34;5076317;28;20296;-69
2022/06/08 01:55:02;;;;;;;4.60;4.20;;;;;;;20.01;nan;94633.06;5075621;28;20208;-69
2022/06/08 01:57:45;;;;;;;8.70;3.97;;;;;;;20.01;nan;94631.31;5077135;28;20205;-69
2022/06/08 02:00:18;;;;;;;4.18;3.70;;;;;;;20.19;nan;94626.47;5074556;28;20205;-68
2022/06/08 02:02:54;;;;;;;4.18;3.83;;;;;;;20.01;nan;94630.50;5076254;28;21524;-69
2022/06/08 02:05:33;;;;;;;5.65;4.15;;;;;;;20.09;nan;94632.47;5076490;28;21249;-69
2022/06/08 02:08:14;;;;;;;3.72;3.53;;;;;;;20.40;nan;94628.34;5076914;28;20197;-68
2022/06/08 02:10:52;;;;;;;4.85;3.53;;;;;;;20.22;nan;94631.41;5075895;28;20209;-70
2022/06/08 02:13:25;;;;;;;3.55;3.35;;;;;;;20.14;nan;94615.69;5077044;28;20205;-68
2022/06/08 02:15:57;;;;;;;6.03;5.45;;;;;;;20.19;nan;94605.84;5076934;28;20285;-69
2022/06/08 02:18:30;;;;;;;7.53;4.72;;;;;;;20.05;nan;94612.06;5077106;28;20204;-68
2022/06/08 02:21:02;;;;;;;4.15;3.78;;;;;;;19.95;nan;94618.88;5076221;28;20201;-68
2022/06/08 02:23:35;;;;;;;8.30;5.05;;;;;;;20.07;nan;94616.28;5076283;28;20691;-70
2022/06/08 02:26:10;;;;;;;6.68;5.45;;;;;;;20.15;nan;94612.19;5075268;28;20612;-68
2022/06/08 02:28:39;;;;;;;9.27;5.47;;;;;;;20.42;nan;94616.13;5077425;28;20254;-69
2022/06/08 02:31:12;;;;;;;5.35;4.43;;;;;;;20.34;nan;94614.13;5076705;28;20511;-68
2022/06/08 02:36:34;;;;;;;9.27;3.75;;;;;;;20.04;nan;94615.59;5076124;28;20687;-68
2022/06/08 02:39:06;;;;;;;3.83;3.45;;;;;;;19.77;nan;94614.34;5076441;28;20221;-67
2022/06/08 02:41:37;;;;;;;3.65;3.35;;;;;;;19.37;nan;94617.31;5077166;28;20197;-69
2022/06/08 02:44:08;;;;;;;4.38;3.40;;;;;;;19.18;nan;94609.31;5076118;28;20684;-69
2022/06/08 02:46:44;;;;;;;6.40;3.95;;;;;;;19.03;nan;94601.81;5076013;28;20233;-68
2022/06/08 02:49:11;;;;;;;6.45;4.35;;;;;;;18.98;nan;94598.75;5076898;28;20208;-68
2022/06/08 02:51:43;;;;;;;3.72;3.40;;;;;;;19.01;nan;94608.00;5076862;28;20210;-67
2022/06/08 02:54:15;;;;;;;6.72;3.67;;;;;;;18.93;nan;94612.88;5076250;28;20208;-68
2022/06/08 02:56:51;;;;;;;4.80;4.20;;;;;;;18.81;nan;94618.91;5075809;28;20282;-69
2022/06/08 02:59:23;;;;;;;4.40;4.10;;;;;;;18.49;nan;94627.19;5076088;28;20205;-69
2022/06/08 03:01:59;;;;;;;6.18;3.63;;;;;;;18.57;nan;94627.44;5075516;28;20213;-68
2022/06/08 03:04:30;;;;;;;4.40;3.85;;;;;;;18.44;nan;94631.84;5075742;28;20614;-68
2022/06/08 03:07:00;;;;;;;5.20;4.82;;;;;;;18.62;nan;94629.72;5075513;28;21036;-68
2022/06/08 03:09:29;;;;;;;6.60;4.15;;;;;;;18.50;nan;94633.16;5075577;28;20250;-68
2022/06/08 03:12:01;;;;;;;7.43;3.65;;;;;;;18.77;nan;94644.09;5074674;28;20251;-67
2022/06/08 03:14:29;;;;;;;5.43;4.15;;;;;;;18.43;nan;94639.66;5073683;28;21730;-67
2022/06/08 03:16:59;;;;;;;5.18;4.32;;;;;;;17.74;nan;94648.78;5074501;28;20628;-69
2022/06/08 03:19:28;;;;;;;8.23;4.05;;;;;;;17.24;nan;94643.50;5073607;28;20213;-69
2022/06/08 03:21:56;;;;;;;5.32;4.80;;;;;;;17.10;nan;94646.16;5074078;28;20202;-68
2022/06/08 03:24:24;;;;;;;5.45;4.38;;;;;;;17.23;nan;94641.03;5073453;28;20623;-67
2022/06/08 03:26:53;;;;;;;5.93;4.38;;;;;;;17.14;nan;94646.78;5073646;28;20246;-69
2022/06/08 03:29:22;;;;;;;5.95;4.78;;;;;;;18.15;nan;94644.16;5073230;28;20197;-68
2022/06/08 03:31:49;;;;;;;7.63;4.57;;;;;;;20.36;nan;94630.31;5072823;28;20202;-68
2022/06/08 03:34:16;;;;;;;7.55;3.95;;;;;;;22.78;nan;94640.31;5073110;28;20202;-68
2022/06/08 03:36:43;;;;;;;5.88;4.18;;;;;;;24.58;nan;94642.75;5073345;28;21012;-69
2022/06/08 03:39:11;;;;;;;11.90;4.22;;;;;;;25.45;nan;94640.31;5075190;28;20217;-68
2022/06/08 03:41:39;;;;;;;5.75;4.40;;;;;;;25.72;nan;94637.59;5075782;28;20197;-70
2022/06/08 03:44:06;;;;;;;5.63;3.42;;;;;;;26.71;nan;94627.44;5075607;28;20194;-69
2022/06/08 03:46:39;;;;;;;5.03;4.20;;;;;;;27.47;nan;94628.97;5074824;28;20233;-68
2022/06/08 03:49:08;;;;;;;15.07;3.97;;;;;;;27.97;nan;94631.34;5074875;28;20196;-68
2022/06/08 03:51:38;;;;;;;5.32;4.10;;;;;;;27.63;nan;94631.59;5075534;28;20205;-69
2022/06/08 03:54:10;;;;;;;7.85;3.47;;;;;;;28.10;nan;94628.22;5075506;28;20587;-69
2022/06/08 03:56:41;;;;;;;6.13;3.70;;;;;;;28.43;nan;94632.38;5075512;28;20206;-69
2022/06/08 03:59:08;;;;;;;4.32;3.97;;;;;;;28.58;nan;94631.63;5074228;28;20208;-68
2022/06/08 04:01:36;;;;;;;6.05;5.15;;;;;;;28.40;nan;94630.09;5074975;28;20212;-68
2022/06/08 04:04:03;;;;;;;5.22;4.80;;;;;;;27.10;nan;94626.88;5075415;28;20209;-69
2022/06/08 04:06:31;;;;;;;5.38;4.35;;;;;;;27.57;nan;94631.41;5074631;28;20221;-68
2022/06/08 04:08:57;;;;;;;4.22;3.78;;;;;;;27.94;nan;94634.31;5074781;28;20205;-69
2022/06/08 04:11:24;;;;;;;4.68;3.72;;;;;;;27.21;nan;94630.97;5074804;28;20224;-69
2022/06/08 04:13:51;;;;;;;15.68;4.32;;;;;;;27.02;nan;94624.25;5074705;28;20742;-67
2022/06/08 04:16:19;;;;;;;6.00;5.43;;;;;;;25.09;nan;94624.75;5074204;28;21009;-68
2022/06/08 04:18:47;;;;;;;37.15;26.52;;;;;;;24.47;nan;94617.00;5075009;28;20201;-67
2022/06/08 04:21:16;;;;;;;11.90;9.32;;;;;;;24.48;nan;94618.63;5074725;28;20691;-68
2022/06/08 04:23:46;;;;;;;14.65;6.45;;;;;;;24.48;nan;94616.03;5074973;28;20687;-68
2022/06/08 04:26:14;;;;;;;4.10;3.78;;;;;;;24.36;nan;94618.81;5074057;28;20249;-69
2022/06/08 04:28:43;;;;;;;5.28;4.70;;;;;;;23.76;nan;94621.94;5074336;28;20221;-67
2022/06/08 04:31:10;;;;;;;6.15;5.55;;;;;;;22.63;nan;94611.38;5074381;28;20194;-68
2022/06/08 04:33:37;;;;;;;5.22;4.75;;;;;;;22.96;nan;94613.59;5074894;28;20210;-68
2022/06/08 04:36:06;;;;;;;8.60;6.25;;;;;;;22.45;nan;94615.56;5074122;28;20571;-69
2022/06/08 04:38:34;;;;;;;5.05;4.85;;;;;;;22.89;nan;94615.09;5074245;28;20267;-68
2022/06/08 04:41:01;;;;;;;7.20;5.28;;;;;;;22.54;nan;94617.34;5074491;28;20209;-68
2022/06/08 04:43:28;;;;;;;14.38;11.35;;;;;;;23.85;nan;94610.69;5074827;28;20198;-69
2022/06/08 04:45:55;;;;;;;13.68;9.77;;;;;;;24.75;nan;94615.94;5074592;28;20327;-70
2022/06/08 04:48:22;;;;;;;7.53;5.57;;;;;;;25.32;nan;94611.25;5074706;28;20229;-69
2022/06/08 04:50:49;;;;;;;9.65;4.45;;;;;;;26.67;nan;94617.50;5074379;28;20292;-68
2022/06/08 04:53:17;;;;;;;7.25;4.47;;;;;;;28.41;nan;94616.03;5074141;28;20206;-68
2022/06/08 04:55:44;;;;;;;7.18;4.47;;;;;;;28.66;nan;94610.69;5074152;28;20280;-68
2022/06/08 04:58:11;;;;;;;4.28;3.90;;;;;;;28.35;nan;94616.72;5074627;28;20198;-70
2022/06/08 05:00:38;;;;;;;6.43;4.07;;;;;;;27.56;nan;94619.34;5074168;28;20206;-68
2022/06/08 05:03:04;;;;;;;11.02;8.82;;;;;;;27.63;nan;94622.97;5074542;28;20603;-69
2022/06/08 05:05:33;;;;;;;16.52;14.73;;;;;;;27.19;nan;94623.28;5074002;28;20197;-70
2022/06/08 05:08:02;;;;;;;8.73;6.55;;;;;;;26.92;nan;94616.56;5074018;28;20237;-67
2022/06/08 05:10:32;;;;;;;8.70;4.82;;;;;;;26.77;nan;94623.38;5074280;28;20190;-69
2022/06/08 05:12:59;;;;;;;7.40;4.50;;;;;;;26.86;nan;94611.97;5074704;28;20263;-68
2022/06/08 05:15:29;;;;;;;8.88;4.07;;;;;;;27.36;nan;94608.44;5073990;28;20205;-68
2022/06/08 05:17:56;;;;;;;6.10;4.35;;;;;;;29.34;nan;94612.50;5074556;28;20202;-69
2022/06/08 05:20:24;;;;;;;10.20;4.75;;;;;;;31.49;nan;94610.38;5073800;28;20210;-68
2022/06/08 05:22:51;;;;;;;4.30;3.90;;;;;;;33.49;nan;94609.22;5074213;28;20708;-70
2022/06/08 05:25:21;;;;;;;4.00;3.70;;;;;;;35.26;nan;94612.34;5073172;28;20248;-68
2022/06/08 05:27:50;;;;;;;9.65;4.78;;;;;;;36.55;nan;94606.31;5074403;28;20286;-69
2022/06/08 05:30:16;;;;;;;5.55;5.10;;;;;;;36.00;nan;94608.94;5074180;28;20202;-69
2022/06/08 05:32:43;;;;;;;6.18;4.30;;;;;;;35.92;nan;94606.56;5074125;28;20210;-68
2022/06/08 05:35:11;;;;;;;5.28;3.92;;;;;;;36.27;nan;94612.94;5076663;28;20205;-69
2022/06/08 05:37:38;;;;;;;7.32;5.07;;;;;;;36.02;nan;94618.25;5077900;28;20282;-70
2022/06/08 05:40:07;;;;;;;7.65;4.78;;;;;;;34.81;nan;94620.34;5077121;28;20712;-68
2022/06/08 05:42:34;;;;;;;9.25;4.45;;;;;;;35.23;nan;94618.06;5077873;28;20297;-69
2022/06/08 05:45:02;;;;;;;4.80;4.40;;;;;;;35.35;nan;94609.28;5077175;28;20585;-68
2022/06/08 05:47:29;;;;;;;5.30;4.80;;;;;;;36.12;nan;94618.56;5077082;28;20306;-69
2022/06/08 05:49:56;;;;;;;5.15;4.60;;;;;;;35.87;nan;94622.28;5077456;28;20197;-71
2022/06/08 05:52:23;;;;;;;10.30;5.03;;;;;;;35.04;nan;94623.25;5077935;28;20194;-68
2022/06/08 05:54:49;;;;;;;5.28;4.78;;;;;;;34.11;nan;94619.34;5077268;28;20310;-69
2022/06/08 05:57:16;;;;;;;5.20;4.70;;;;;;;33.96;nan;94616.09;5077486;28;20205;-69
2022/06/08 05:59:43;;;;;;;7.25;4.30;;;;;;;33.27;nan;94606.81;5076200;28;20209;-67
2022/06/08 06:02:15;;;;;;;6.95;4.30;;;;;;;34.36;nan;94607.13;5077345;28;20210;-68
2022/06/08 06:04:43;;;;;;;5.85;4.32;;;;;;;34.94;nan;94600.97;5077035;28;20198;-67
2022/06/08 06:07:11;;;;;;;7.00;5.28;;;;;;;35.12;nan;94607.16;5077109;28;20302;-67
2022/06/08 06:09:40;;;;;;;13.52;7.80;;;;;;;34.92;nan;94606.47;5076999;28;20592;-68
2022/06/08 06:12:08;;;;;;;16.50;10.38;;;;;;;34.76;nan;94604.28;5077608;28;20193;-67
2022/06/08 06:14:35;;;;;;;11.07;6.13;;;;;;;34.83;nan;94607.75;5076200;28;20295;-67
2022/06/08 06:17:02;;;;;;;12.02;5.68;;;;;;;34.56;nan;94595.66;5077486;28;20277;-67
2022/06/08 06:19:31;;;;;;;8.35;5.22;;;;;;;33.32;nan;94603.56;5076367;28;20228;-69
2022/06/08 06:21:59;;;;;;;12.60;5.07;;;;;;;32.23;nan;94602.81;5077138;28;20194;-68
2022/06/08 06:24:25;;;;;;;5.93;4.40;;;;;;;31.75;nan;94600.06;5076965;28;20201;-69
2022/06/08 06:26:53;;;;;;;11.55;5.55;;;;;;;31.49;nan;94599.84;5076524;28;20800;-67
2022/06/08 06:29:20;;;;;;;4.97;4.47;;;;;;;31.33;nan;94588.63;5075152;28;20214;-68
2022/06/08 06:31:50;;;;;;;7.13;4.13;;;;;;;31.29;nan;94582.13;5077095;28;20271;-69
2022/06/08 06:34:19;;;;;;;10.63;4.57;;;;;;;31.64;nan;94587.47;5070367;28;20217;-68
2022/06/08 06:36:47;;;;;;;7.70;3.63;;;;;;;32.33;nan;94585.66;5076564;28;20208;-67
2022/06/08 06:39:14;;;;;;;5.18;4.20;;;;;;;32.51;nan;94581.69;5075710;28;20221;-67
2022/06/08 06:41:43;;;;;;;4.47;3.72;;;;;;;31.70;nan;94581.44;5076446;28;20285;-69
2022/06/08 06:44:10;;;;;;;5.45;4.25;;;;;;;30.98;nan;94579.81;5076358;28;21207;-68
2022/06/08 06:46:37;;;;;;;4.07;3.60;;;;;;;30.27;nan;94573.59;5076270;28;20293;-68
2022/06/08 06:49:05;;;;;;;21.65;5.20;;;;;;;29.29;nan;94579.00;5076132;28;20320;-69
2022/06/08 06:51:31;;;;;;;9.48;5.32;;;;;;;28.50;nan;94579.38;5076075;28;20592;-69
2022/06/08 06:54:00;;;;;;;6.30;4.35;;;;;;;28.97;nan;94574.03;5076298;28;21214;-68
2022/06/08 06:56:26;;;;;;;4.22;3.67;;;;;;;29.44;nan;94571.22;5075945;28;20198;-70
2022/06/08 06:58:53;;;;;;;5.78;4.18;;;;;;;29.00;nan;94569.28;5076380;28;20198;-68
2022/06/08 07:01:20;;;;;;;8.43;5.10;;;;;;;28.69;nan;94571.13;5075801;28;20247;-69
2022/06/08 07:03:47;;;;;;;4.88;4.30;;;;;;;28.91;nan;94575.56;5076381;28;20201;-70
2022/06/08 07:06:14;;;;;;;4.63;4.07;;;;;;;28.00;nan;94570.13;5075787;28;20201;-70
2022/06/08 07:08:40;;;;;;;4.85;4.13;;;;;;;27.65;nan;94566.19;5075298;28;20306;-69
2022/06/08 07:13:59;;;;;;;5.32;3.47;;;;;;;28.12;nan;94574.00;5071110;28;20339;-69
2022/06/08 07:16:26;;;;;;;3.45;3.20;;;;;;;28.49;nan;94577.75;5075665;28;20318;-69
2022/06/08 07:18:53;;;;;;;5.57;4.10;;;;;;;28.92;nan;94579.00;5074921;28;20214;-69
2022/06/08 07:21:20;;;;;;;6.57;3.83;;;;;;;29.10;nan;94582.13;5075853;28;20202;-69
2022/06/08 07:23:47;;;;;;;7.88;4.40;;;;;;;29.24;nan;94575.28;5075051;28;21064;-68
2022/06/08 07:26:17;;;;;;;12.10;8.68;;;;;;;29.45;nan;94580.69;5075722;28;20241;-69
2022/06/08 07:28:44;;;;;;;6.90;4.18;;;;;;;28.91;nan;94578.19;5074988;28;20233;-68
2022/06/08 07:31:13;;;;;;;6.88;4.80;;;;;;;28.87;nan;94579.53;5075763;28;20202;-68
2022/06/08 07:33:40;;;;;;;12.45;5.85;;;;;;;29.08;nan;94574.44;5074979;28;20592;-69
2022/06/08 07:36:08;;;;;;;16.02;9.52;;;;;;;29.21;nan;94580.88;5075519;28;20213;-70
2022/06/08 07:38:35;;;;;;;18.15;10.30;;;;;;;29.19;nan;94572.41;5074606;28;20205;-70
2022/06/08 07:41:01;;;;;;;9.45;4.95;;;;;;;29.07;nan;94585.09;5075665;28;20190;-68
2022/06/08 07:43:30;;;;;;;6.28;4.70;;;;;;;28.62;nan;94591.91;5075087;28;20201;-71
2022/06/08 07:45:58;;;;;;;7.45;5.28;;;;;;;28.50;nan;94595.06;5075562;28;20259;-71
2022/06/08 07:51:09;;;;;;;10.23;4.97;;;;;;;27.76;nan;94590.13;5075719;28;20228;-70
2022/06/08 07:53:36;;;;;;;6.93;5.25;;;;;;;27.70;nan;94584.78;5075094;28;20193;-69
2022/06/08 07:56:04;;;;;;;7.05;5.07;;;;;;;27.66;nan;94581.69;5074702;28;20316;-69
2022/06/08 07:58:32;;;;;;;9.40;6.63;;;;;;;27.63;nan;94589.84;5074019;28;20206;-69
2022/06/08 08:00:59;;;;;;;15.00;6.72;;;;;;;27.87;nan;94591.56;5075114;28;20256;-69
2022/06/08 08:03:26;;;;;;;6.95;5.60;;;;;;;28.08;nan;94580.56;5074683;28;20205;-69
2022/06/08 08:05:54;;;;;;;5.70;4.38;;;;;;;28.30;nan;94571.16;5075426;28;20209;-70
2022/06/08 08:08:21;;;;;;;7.80;5.95;;;;;;;28.45;nan;94574.69;5074144;28;20236;-69
2022/06/08 08:10:48;;;;;;;8.45;4.90;;;;;;;28.58;nan;94574.13;5074765;28;20212;-69
2022/06/08 08:13:15;;;;;;;8.60;5.10;;;;;;;28.50;nan;94566.31;5074332;28;20202;-69
2022/06/08 08:15:44;;;;;;;9.70;5.20;;;;;;;28.73;nan;94573.19;5075190;28;20205;-69
2022/06/08 08:18:12;;;;;;;6.03;5.00;;;;;;;28.50;nan;94561.91;5074182;28;21008;-68
2022/06/08 08:20:39;;;;;;;7.95;4.20;;;;;;;28.62;nan;94564.94;5074760;28;20611;-69
2022/06/08 08:23:06;;;;;;;14.77;4.93;;;;;;;28.85;nan;94562.38;5074444;28;20565;-68
2022/06/08 08:25:35;;;;;;;9.43;4.18;;;;;;;28.82;nan;94540.00;5073452;28;20320;-71
2022/06/08 08:28:03;;;;;;;6.28;3.92;;;;;;;28.67;nan;94554.78;5073948;28;20618;-72
2022/06/08 08:30:31;;;;;;;8.18;3.95;;;;;;;28.65;nan;94554.16;5074748;28;20208;-69
2022/06/08 08:32:59;;;;;;;3.72;3.42;;;;;;;28.83;nan;94546.84;5074540;28;20197;-71
2022/06/08 08:35:27;;;;;;;5.28;3.72;;;;;;;28.71;nan;94548.19;5074861;28;20210;-69
2022/06/08 08:37:55;;;;;;;6.13;4.18;;;;;;;28.49;nan;94543.78;5074310;28;20206;-69
2022/06/08 08:40:43;;;;;;;4.30;3.97;;;;;;;28.25;nan;94547.34;5073595;28;20291;-68
2022/06/08 08:43:12;;;;;;;5.22;3.55;;;;;;;28.07;nan;94540.56;5073590;28;20677;-70
2022/06/08 08:45:46;;;;;;;5.15;4.15;;;;;;;27.95;nan;94543.72;5073894;28;20287;-69
2022/06/08 08:48:19;;;;;;;5.63;3.35;;;;;;;28.04;nan;94540.06;5073871;28;20739;-69
2022/06/08 08:50:52;;;;;;;3.83;3.28;;;;;;;28.28;nan;94537.38;5073658;28;20225;-68
2022/06/08 08:53:24;;;;;;;6.25;3.38;;;;;;;28.19;nan;94532.34;5070261;28;20197;-70
2022/06/08 08:55:58;;;;;;;6.60;3.38;;;;;;;28.18;nan;94528.91;5073818;28;20680;-69
2022/06/08 08:58:28;;;;;;;4.20;3.17;;;;;;;27.84;nan;94533.63;5074100;28;20756;-68
2022/06/08 09:00:59;;;;;;;8.18;3.40;;;;;;;27.52;nan;94537.13;5074373;28;20208;-69
2022/06/08 09:03:32;;;;;;;15.02;12.15;;;;;;;27.41;nan;94530.47;5073728;28;20603;-69
2022/06/08 09:06:01;;;;;;;3.58;2.60;;;;;;;27.13;nan;94526.59;5073863;28;20608;-68
2022/06/08 09:08:29;;;;;;;4.20;2.97;;;;;;;27.35;nan;94528.53;5073778;28;20232;-67
2022/06/08 09:10:59;;;;;;;3.03;2.75;;;;;;;27.35;nan;94526.72;5078400;28;20208;-68
2022/06/08 09:13:34;;;;;;;4.18;2.63;;;;;;;27.37;nan;94523.97;5077441;28;21638;-68
2022/06/08 09:16:01;;;;;;;3.97;2.88;;;;;;;27.21;nan;94526.59;5078060;28;20639;-69
2022/06/08 09:18:34;;;;;;;7.65;6.97;;;;;;;27.53;nan;94521.31;5077813;28;21340;-68
2022/06/08 09:21:19;;;;;;;12.50;10.00;;;;;;;27.91;nan;94511.91;5078285;28;20229;-69
2022/06/08 09:23:51;;;;;;;7.13;2.72;;;;;;;27.94;nan;94514.19;5077459;28;20212;-69
2022/06/08 09:26:31;;;;;;;8.68;3.17;;;;;;;28.24;nan;94509.94;5077100;28;20243;-71
2022/06/08 09:28:59;;;;;;;2.10;2.00;;;;;;;28.33;nan;94513.34;5077383;28;20259;-71
2022/06/08 09:31:28;;;;;;;2.78;2.58;;;;;;;28.24;nan;94504.72;5076595;28;20206;-68
2022/06/08 09:34:16;;;;;;;6.85;2.67;;;;;;;27.57;nan;94500.91;5077786;28;20197;-68
2022/06/08 09:36:44;;;;;;;2.70;2.50;;;;;;;27.77;nan;94502.97;5076197;28;20792;-68
2022/06/08 09:39:14;;;;;;;5.18;4.13;;;;;;;28.22;nan;94500.66;5077150;28;20229;-69
2022/06/08 09:41:48;;;;;;;3.97;2.95;;;;;;;28.60;nan;94505.00;5077111;28;20217;-67
2022/06/08 09:44:20;;;;;;;6.03;2.15;;;;;;;28.02;nan;94502.84;5077799;28;20202;-69
2022/06/08 09:53:02;;;;;;;10.63;2.58;;;;;;;27.97;nan;94494.72;5076834;28;20205;-69
2022/06/08 09:55:47;;;;;;;5.10;4.60;;;;;;;28.10;nan;94487.16;5076368;28;20288;-69
2022/06/08 09:58:33;;;;;;;4.88;2.20;;;;;;;27.75;nan;94489.28;5076753;28;20209;-71
2022/06/08 10:01:06;;;;;;;2.65;2.08;;;;;;;27.67;nan;94475.47;5076238;28;20251;-68
2022/06/08 10:04:03;;;;;;;3.10;1.30;;;;;;;27.98;nan;94478.06;5076208;28;20228;-68
2022/06/08 10:06:41;;;;;;;2.92;2.72;;;;;;;28.44;nan;94473.75;5060290;28;20581;-68
2022/06/08 10:09:18;;;;;;;1.75;1.65;;;;;;;27.24;nan;94476.69;5076221;28;20229;-69
2022/06/08 10:11:53;;;;;;;2.35;2.15;;;;;;;27.17;nan;94463.53;5075406;28;20286;-69
2022/06/08 10:14:26;;;;;;;2.60;1.75;;;;;;;27.59;nan;94470.25;5074853;28;21298;-68
2022/06/08 10:16:58;;;;;;;6.13;5.68;;;;;;;27.97;nan;94468.59;5073990;28;20267;-68
2022/06/08 10:19:31;;;;;;;1.73;1.63;;;;;;;27.98;nan;94468.44;5073979;28;20202;-68
2022/06/08 10:22:03;;;;;;;7.63;2.25;;;;;;;27.59;nan;94471.06;5075037;28;20696;-69
2022/06/08 10:24:38;;;;;;;6.63;2.33;;;;;;;27.82;nan;94463.31;5073845;28;20289;-68
2022/06/08 10:27:12;;;;;;;4.63;3.63;;;;;;;28.10;nan;94458.41;5074917;28;20225;-68
2022/06/08 10:29:45;;;;;;;8.35;1.95;;;;;;;28.28;nan;94456.38;5073347;28;20236;-68
2022/06/08 10:32:17;;;;;;;5.15;2.08;;;;;;;28.12;nan;94459.06;5075593;28;20197;-68
2022/06/08 10:34:44;;;;;;;11.30;2.53;;;;;;;28.36;nan;94461.53;5076076;28;20214;-68
2022/06/08 10:37:16;;;;;;;4.95;2.67;;;;;;;28.73;nan;94457.31;5075420;28;20668;-69
2022/06/08 10:39:45;;;;;;;1.92;1.83;;;;;;;28.88;nan;94446.94;5076727;28;20259;-69
2022/06/08 10:42:42;;;;;;;1.85;1.75;;;;;;;29.23;nan;94440.19;5075748;28;20298;-68
2022/06/08 10:45:35;;;;;;;2.67;2.47;;;;;;;29.19;nan;94441.56;5075753;28;20198;-69
2022/06/08 10:48:22;;;;;;;2.50;2.30;;;;;;;29.38;nan;94422.69;5076281;28;20255;-69
2022/06/08 10:51:22;;;;;;;5.03;2.47;;;;;;;28.73;nan;94447.69;5075322;28;21519;-68
2022/06/08 10:56:48;;;;;;;3.65;2.08;;;;;;;28.86;nan;94438.47;5075571;28;20876;-68
2022/06/08 10:59:18;;;;;;;4.68;1.98;;;;;;;28.72;nan;94440.81;5076259;28;20197;-69
2022/06/08 11:01:56;;;;;;;1.88;1.77;;;;;;;28.87;nan;94440.09;5075659;28;20224;-69
2022/06/08 11:04:54;;;;;;;3.40;2.10;;;;;;;29.17;nan;94438.31;5076005;28;20290;-71
2022/06/08 11:07:22;;;;;;;2.55;2.20;;;;;;;29.24;nan;94439.19;5071859;28;20197;-68
2022/06/08 11:10:03;;;;;;;3.05;2.85;;;;;;;29.29;nan;94432.44;5075681;28;20229;-69
2022/06/08 11:12:52;;;;;;;4.07;1.75;;;;;;;29.10;nan;94433.78;5075058;28;20592;-68
2022/06/08 11:15:47;;;;;;;6.45;2.63;;;;;;;29.15;nan;94421.97;5075754;28;21091;-69
2022/06/08 11:18:32;;;;;;;3.95;1.92;;;;;;;28.81;nan;94425.91;5076078;28;20280;-69
2022/06/08 11:21:34;;;;;;;5.47;1.80;;;;;;;28.04;nan;94427.75;5074413;28;20676;-68
2022/06/08 11:24:04;;;;;;;6.05;1.88;;;;;;;28.20;nan;94427.69;5064187;28;20228;-68
2022/06/08 11:26:53;;;;;;;4.45;1.95;;;;;;;28.19;nan;94423.44;5074946;28;20233;-69
2022/06/08 11:29:40;;;;;;;2.53;2.33;;;;;;;28.23;nan;94413.44;5074979;28;20283;-69
2022/06/08 11:32:22;;;;;;;2.13;2.03;;;;;;;28.57;nan;94411.22;5074621;28;20202;-69
2022/06/08 11:35:03;;;;;;;7.22;2.20;;;;;;;28.66;nan;94401.50;5074942;28;20198;-70
2022/06/08 11:37:40;;;;;;;3.53;3.20;;;;;;;28.52;nan;94391.81;5075553;28;20297;-70
2022/06/08 11:40:13;;;;;;;6.28;4.20;;;;;;;28.81;nan;94394.53;5075053;28;20232;-69
2022/06/08 11:42:50;;;;;;;3.10;2.80;;;;;;;28.91;nan;94387.25;5074831;28;20648;-68
2022/06/08 11:45:19;;;;;;;8.48;7.72;;;;;;;28.60;nan;94391.75;5075316;28;20198;-68
2022/06/08 11:47:53;;;;;;;3.63;2.72;;;;;;;28.93;nan;94390.50;5074516;28;20198;-69
2022/06/08 11:50:24;;;;;;;3.85;3.55;;;;;;;28.90;nan;94380.38;5074346;28;20229;-68
2022/06/08 11:52:59;;;;;;;2.58;2.38;;;;;;;28.94;nan;94386.88;5074157;28;20206;-68
2022/06/08 11:55:27;;;;;;;2.55;2.20;;;;;;;29.16;nan;94385.19;5073861;28;20209;-68
2022/06/08 11:57:58;;;;;;;3.88;2.03;;;;;;;29.01;nan;94368.66;5074347;28;20228;-69
2022/06/08 12:00:33;;;;;;;2.35;2.15;;;;;;;29.21;nan;94369.72;5074238;28;20198;-68
2022/06/08 12:03:04;;;;;;;1.70;1.60;;;;;;;29.33;nan;94365.66;5074580;28;20259;-68
2022/06/08 12:05:35;;;;;;;9.15;2.42;;;;;;;29.22;nan;94373.16;5080078;28;20198;-70
2022/06/08 12:08:09;;;;;;;5.25;2.08;;;;;;;29.61;nan;94365.81;5065009;28;20217;-70
2022/06/08 12:10:37;;;;;;;2.63;2.25;;;;;;;29.66;nan;94371.31;5077926;28;20260;-67
2022/06/08 12:13:18;;;;;;;2.45;2.22;;;;;;;29.52;nan;94377.38;5077543;28;20208;-68
2022/06/08 12:15:49;;;;;;;4.70;4.32;;;;;;;29.67;nan;94367.72;5078156;28;20296;-69
2022/06/08 12:18:46;;;;;;;22.65;16.05;;;;;;;29.77;nan;94362.16;5077864;28;21210;-69
2022/06/08 12:21:26;;;;;;;10.80;9.77;;;;;;;29.52;nan;94359.06;5077583;28;20233;-69
2022/06/08 12:24:06;;;;;;;13.38;10.55;;;;;;;29.41;nan;94349.91;5078417;28;20250;-69
2022/06/08 12:26:46;;;;;;;8.20;6.60;;;;;;;29.24;nan;94355.47;5077868;28;20229;-72